createdAt,value
2022-09-24T00:00:32.717Z,70.27
2022-09-24T00:01:55.301Z,70.27
2022-09-24T00:02:56.941Z,70.33
2022-09-24T00:04:01.808Z,70.36
2022-09-24T00:05:04.691Z,70.49
2022-09-24T00:06:07.304Z,70.48
2022-09-24T00:07:09.777Z,70.66
2022-09-24T00:08:11.600Z,70.55
2022-09-24T00:09:16.460Z,70.69
2022-09-24T00:10:18.024Z,70.64
2022-09-24T00:11:22.858Z,70.79
2022-09-24T00:12:25.778Z,70.94
2022-09-24T00:13:27.768Z,70.89
2022-09-24T00:14:30.336Z,70.84
2022-09-24T00:15:36.677Z,70.77
2022-09-24T00:16:41.182Z,71.13
2022-09-24T00:17:42.807Z,71.05
2022-09-24T00:18:45.631Z,71.04
2022-09-24T00:19:47.157Z,71.27
2022-09-24T00:20:49.742Z,71.24
2022-09-24T00:21:52.208Z,71.33
2022-09-24T00:22:53.702Z,71.59
2022-09-24T00:23:58.083Z,71.40
2022-09-24T00:25:18.233Z,71.44
2022-09-24T00:26:40.624Z,71.64
2022-09-24T00:27:42.649Z,71.30
2022-09-24T00:28:45.122Z,71.47
2022-09-24T00:29:46.751Z,71.83
2022-09-24T00:30:49.347Z,71.69
2022-09-24T00:31:52.717Z,71.62
2022-09-24T00:32:55.303Z,71.95
2022-09-24T00:33:58.269Z,71.88
2022-09-24T00:35:00.770Z,71.79
2022-09-24T00:36:05.383Z,71.93
2022-09-24T00:37:07.891Z,71.98
2022-09-24T00:38:10.533Z,72.01
2022-09-24T00:39:13.417Z,72.01
2022-09-24T00:40:15.788Z,71.90
2022-09-24T00:41:19.900Z,72.06
2022-09-24T00:42:22.772Z,72.00
2022-09-24T00:43:28.010Z,72.32
2022-09-24T00:44:50.668Z,72.32
2022-09-24T00:45:56.374Z,72.21
2022-09-24T00:46:57.973Z,72.32
2022-09-24T00:48:00.619Z,72.40
2022-09-24T00:49:06.152Z,72.49
2022-09-24T00:50:18.165Z,72.46
2022-09-24T00:51:25.293Z,72.40
2022-09-24T00:52:27.904Z,72.32
2022-09-24T00:53:33.158Z,72.50
2022-09-24T00:54:37.246Z,72.62
2022-09-24T00:55:40.931Z,72.62
2022-09-24T00:56:45.971Z,72.53
2022-09-24T00:57:51.149Z,72.62
2022-09-24T00:58:57.114Z,72.42
2022-09-24T00:59:59.304Z,72.88
2022-09-24T01:01:06.953Z,72.81
2022-09-24T01:02:08.736Z,72.89
2022-09-24T01:03:15.115Z,72.74
2022-09-24T01:04:21.060Z,72.70
2022-09-24T01:05:23.771Z,72.86
2022-09-24T01:06:25.796Z,72.77
2022-09-24T01:07:28.350Z,72.88
2022-09-24T01:08:30.077Z,72.97
2022-09-24T01:09:32.817Z,73.06
2022-09-24T01:10:48.983Z,72.88
2022-09-24T01:12:00.217Z,73.01
2022-09-24T01:13:12.315Z,72.98
2022-09-24T01:14:42.461Z,73.02
2022-09-24T01:15:49.861Z,72.99
2022-09-24T01:16:59.801Z,73.26
2022-09-24T01:18:07.159Z,73.09
2022-09-24T01:19:30.366Z,72.99
2022-09-24T01:20:52.406Z,73.11
2022-09-24T01:21:58.508Z,73.17
2022-09-24T01:23:17.039Z,73.25
2022-09-24T01:24:40.294Z,73.13
2022-09-24T01:26:00.028Z,73.26
2022-09-24T01:27:07.614Z,73.33
2022-09-24T01:28:31.958Z,73.23
2022-09-24T01:29:49.946Z,73.35
2022-09-24T01:30:59.562Z,73.54
2022-09-24T01:32:07.703Z,73.37
2022-09-24T01:33:13.149Z,73.40
2022-09-24T01:34:21.997Z,73.34
2022-09-24T01:35:28.562Z,73.46
2022-09-24T01:36:32.690Z,73.51
2022-09-24T01:37:37.593Z,73.36
2022-09-24T01:38:44.217Z,73.54
2022-09-24T01:39:47.382Z,73.60
2022-09-24T01:40:52.509Z,73.71
2022-09-24T01:41:54.655Z,73.74
2022-09-24T01:42:59.788Z,73.73
2022-09-24T01:44:07.737Z,73.88
2022-09-24T01:45:12.874Z,74.04
2022-09-24T01:46:16.895Z,73.93
2022-09-24T01:47:25.510Z,74.05
2022-09-24T01:48:27.269Z,73.89
2022-09-24T01:49:30.242Z,74.10
2022-09-24T01:50:38.598Z,73.86
2022-09-24T01:51:48.171Z,74.05
2022-09-24T01:52:56.608Z,73.97
2022-09-24T01:54:03.520Z,74.20
2022-09-24T01:55:09.072Z,74.19
2022-09-24T01:56:16.273Z,74.10
2022-09-24T01:57:23.674Z,74.28
2022-09-24T01:58:33.907Z,74.27
2022-09-24T01:59:40.544Z,74.46
2022-09-24T02:00:50.674Z,74.39
2022-09-24T02:01:58.943Z,74.51
2022-09-24T02:03:06.244Z,74.44
2022-09-24T02:04:14.414Z,74.63
2022-09-24T02:05:21.869Z,74.62
2022-09-24T02:06:29.068Z,74.77
2022-09-24T02:07:36.643Z,74.67
2022-09-24T02:08:40.558Z,74.86
2022-09-24T02:09:44.864Z,74.73
2022-09-24T02:10:52.691Z,74.84
2022-09-24T02:11:57.343Z,74.71
2022-09-24T02:13:03.636Z,74.92
2022-09-24T02:14:10.175Z,74.96
2022-09-24T02:15:15.017Z,74.98
2022-09-24T02:16:24.648Z,74.77
2022-09-24T02:17:32.729Z,74.98
2022-09-24T02:18:39.119Z,74.90
2022-09-24T02:19:42.409Z,75.05
2022-09-24T02:20:45.699Z,74.94
2022-09-24T02:21:48.064Z,75.10
2022-09-24T02:22:52.758Z,75.11
2022-09-24T02:23:59.540Z,75.12
2022-09-24T02:25:05.382Z,75.12
2022-09-24T02:26:07.143Z,75.28
2022-09-24T02:27:09.726Z,75.17
2022-09-24T02:28:11.319Z,75.08
2022-09-24T02:29:14.572Z,75.10
2022-09-24T02:30:16.851Z,75.21
2022-09-24T02:31:26.663Z,75.36
2022-09-24T02:32:31.558Z,75.44
2022-09-24T02:33:54.163Z,75.34
2022-09-24T02:35:02.484Z,75.40
2022-09-24T02:36:04.182Z,75.35
2022-09-24T02:37:08.878Z,75.43
2022-09-24T02:38:16.163Z,75.47
2022-09-24T02:39:19.236Z,75.30
2022-09-24T02:40:21.075Z,75.50
2022-09-24T02:41:25.743Z,75.46
2022-09-24T02:42:27.392Z,75.47
2022-09-24T02:43:30.073Z,75.38
2022-09-24T02:44:32.460Z,75.42
2022-09-24T02:45:35.095Z,75.55
2022-09-24T02:46:39.148Z,75.50
2022-09-24T02:47:41.756Z,75.57
2022-09-24T02:48:43.306Z,75.51
2022-09-24T02:49:45.770Z,75.55
2022-09-24T02:50:47.476Z,75.63
2022-09-24T02:51:49.970Z,75.68
2022-09-24T02:52:51.845Z,75.69
2022-09-24T02:53:55.332Z,75.85
2022-09-24T02:54:56.898Z,75.86
2022-09-24T02:56:00.791Z,75.72
2022-09-24T02:57:02.380Z,75.86
2022-09-24T02:58:04.844Z,75.92
2022-09-24T02:59:07.629Z,75.93
2022-09-24T03:00:11.618Z,75.81
2022-09-24T03:01:16.390Z,75.97
2022-09-24T03:02:20.297Z,75.98
2022-09-24T03:03:22.989Z,75.82
2022-09-24T03:04:26.181Z,75.89
2022-09-24T03:05:27.790Z,75.98
2022-09-24T03:06:30.897Z,76.02
2022-09-24T03:07:32.401Z,75.89
2022-09-24T03:08:35.673Z,76.03
2022-09-24T03:09:37.256Z,75.83
2022-09-24T03:10:39.838Z,76.06
2022-09-24T03:11:41.537Z,75.71
2022-09-24T03:12:44.298Z,75.80
2022-09-24T03:13:45.991Z,75.91
2022-09-24T03:14:48.525Z,75.84
2022-09-24T03:15:50.101Z,76.05
2022-09-24T03:16:52.946Z,75.78
2022-09-24T03:17:56.033Z,75.74
2022-09-24T03:18:58.516Z,75.87
2022-09-24T03:20:00.054Z,75.69
2022-09-24T03:21:06.409Z,75.80
2022-09-24T03:22:07.917Z,75.89
2022-09-24T03:23:10.733Z,75.88
2022-09-24T03:24:12.233Z,75.58
2022-09-24T03:25:14.797Z,75.87
2022-09-24T03:26:18.127Z,75.73
2022-09-24T03:27:20.204Z,75.79
2022-09-24T03:28:23.274Z,75.79
2022-09-24T03:29:39.700Z,75.75
2022-09-24T03:30:59.969Z,75.74
2022-09-24T03:32:03.330Z,75.68
2022-09-24T03:33:06.427Z,75.57
2022-09-24T03:34:09.747Z,75.78
2022-09-24T03:35:12.034Z,75.83
2022-09-24T03:36:17.275Z,75.82
2022-09-24T03:37:18.917Z,75.71
2022-09-24T03:38:21.376Z,75.76
2022-09-24T03:39:22.911Z,75.67
2022-09-24T03:40:26.164Z,75.87
2022-09-24T03:41:28.225Z,75.64
2022-09-24T03:42:30.818Z,75.76
2022-09-24T03:43:33.738Z,75.61
2022-09-24T03:44:36.203Z,75.69
2022-09-24T03:45:38.549Z,75.71
2022-09-24T03:46:41.158Z,75.88
2022-09-24T03:47:43.132Z,75.68
2022-09-24T03:48:47.174Z,75.78
2022-09-24T03:49:48.859Z,75.76
2022-09-24T03:50:51.635Z,75.63
2022-09-24T03:51:53.156Z,75.91
2022-09-24T03:52:55.637Z,75.59
2022-09-24T03:53:57.189Z,75.83
2022-09-24T03:54:59.752Z,75.85
2022-09-24T03:56:02.365Z,75.92
2022-09-24T03:57:04.863Z,75.62
2022-09-24T03:58:06.505Z,75.81
2022-09-24T03:59:10.773Z,75.62
2022-09-24T04:00:12.998Z,75.55
2022-09-24T04:01:21.198Z,75.77
2022-09-24T04:02:23.047Z,75.60
2022-09-24T04:03:26.186Z,75.55
2022-09-24T04:04:29.055Z,75.84
2022-09-24T04:05:31.548Z,75.69
2022-09-24T04:06:33.270Z,75.65
2022-09-24T04:07:35.758Z,75.48
2022-09-24T04:08:37.375Z,75.68
2022-09-24T04:09:39.929Z,75.54
2022-09-24T04:10:41.531Z,75.59
2022-09-24T04:11:44.659Z,75.32
2022-09-24T04:12:46.238Z,75.28
2022-09-24T04:13:48.746Z,75.56
2022-09-24T04:14:50.498Z,75.34
2022-09-24T04:15:53.570Z,75.33
2022-09-24T04:16:55.220Z,75.32
2022-09-24T04:17:59.357Z,75.37
2022-09-24T04:19:01.887Z,75.52
2022-09-24T04:20:06.467Z,75.51
2022-09-24T04:21:09.441Z,75.39
2022-09-24T04:22:11.063Z,75.34
2022-09-24T04:23:13.904Z,75.33
2022-09-24T04:24:15.463Z,75.25
2022-09-24T04:25:18.462Z,75.29
2022-09-24T04:26:20.666Z,75.41
2022-09-24T04:27:23.490Z,75.33
2022-09-24T04:28:25.156Z,75.32
2022-09-24T04:29:27.634Z,75.31
2022-09-24T04:30:30.653Z,75.45
2022-09-24T04:31:33.524Z,75.49
2022-09-24T04:32:35.112Z,75.21
2022-09-24T04:33:37.664Z,75.52
2022-09-24T04:34:39.189Z,75.31
2022-09-24T04:35:43.015Z,75.36
2022-09-24T04:36:44.529Z,75.66
2022-09-24T04:37:48.141Z,75.50
2022-09-24T04:38:50.164Z,75.54
2022-09-24T04:39:52.664Z,75.54
2022-09-24T04:40:55.284Z,75.30
2022-09-24T04:41:57.455Z,75.76
2022-09-24T04:43:00.020Z,75.73
2022-09-24T04:44:02.101Z,75.73
2022-09-24T04:45:05.850Z,75.64
2022-09-24T04:46:08.488Z,75.67
2022-09-24T04:47:11.424Z,75.68
2022-09-24T04:48:13.217Z,75.63
2022-09-24T04:49:15.749Z,75.55
2022-09-24T04:50:17.510Z,75.61
2022-09-24T04:51:21.929Z,75.56
2022-09-24T04:52:26.705Z,75.68
2022-09-24T04:53:29.218Z,75.47
2022-09-24T04:54:30.940Z,75.54
2022-09-24T04:55:33.457Z,75.70
2022-09-24T04:56:35.123Z,75.46
2022-09-24T04:57:37.954Z,75.83
2022-09-24T04:58:39.951Z,75.62
2022-09-24T04:59:42.913Z,75.91
2022-09-24T05:00:44.432Z,75.49
2022-09-24T05:01:47.171Z,75.66
2022-09-24T05:02:56.274Z,75.91
2022-09-24T05:04:01.917Z,75.59
2022-09-24T05:05:03.710Z,75.87
2022-09-24T05:06:10.059Z,75.83
2022-09-24T05:07:13.027Z,75.92
2022-09-24T05:08:15.585Z,76.09
2022-09-24T05:09:17.455Z,76.07
2022-09-24T05:10:20.407Z,76.26
2022-09-24T05:11:22.235Z,76.31
2022-09-24T05:12:24.884Z,76.31
2022-09-24T05:13:27.386Z,76.29
2022-09-24T05:14:30.121Z,76.36
2022-09-24T05:15:32.085Z,76.49
2022-09-24T05:16:35.021Z,76.51
2022-09-24T05:17:38.743Z,76.48
2022-09-24T05:18:41.220Z,76.39
2022-09-24T05:19:42.936Z,76.49
2022-09-24T05:20:45.438Z,76.48
2022-09-24T05:21:47.106Z,76.76
2022-09-24T05:22:51.464Z,76.51
2022-09-24T05:23:53.471Z,76.81
2022-09-24T05:24:55.978Z,77.04
2022-09-24T05:26:16.091Z,76.75
2022-09-24T05:27:19.562Z,77.00
2022-09-24T05:28:22.228Z,76.86
2022-09-24T05:29:23.961Z,76.84
2022-09-24T05:30:26.853Z,76.97
2022-09-24T05:31:28.480Z,77.05
2022-09-24T05:32:31.999Z,76.98
2022-09-24T05:33:33.540Z,77.18
2022-09-24T05:34:36.383Z,77.34
2022-09-24T05:35:38.019Z,77.39
2022-09-24T05:36:40.580Z,77.40
2022-09-24T05:37:43.074Z,77.31
2022-09-24T05:38:45.946Z,77.49
2022-09-24T05:39:48.661Z,77.50
2022-09-24T05:40:50.562Z,77.57
2022-09-24T05:41:53.114Z,77.33
2022-09-24T05:43:00.414Z,77.50
2022-09-24T05:44:03.133Z,77.58
2022-09-24T05:45:06.235Z,77.52
2022-09-24T05:46:08.893Z,77.33
2022-09-24T05:47:11.935Z,77.54
2022-09-24T05:48:14.463Z,77.29
2022-09-24T05:49:16.581Z,77.25
2022-09-24T05:50:19.260Z,77.41
2022-09-24T05:51:20.788Z,77.28
2022-09-24T05:52:23.263Z,77.58
2022-09-24T05:53:24.792Z,77.37
2022-09-24T05:54:28.767Z,77.38
2022-09-24T05:55:32.519Z,77.29
2022-09-24T05:56:36.012Z,77.38
2022-09-24T05:57:38.008Z,77.40
2022-09-24T05:58:40.511Z,77.42
2022-09-24T05:59:42.022Z,77.32
2022-09-24T06:00:45.391Z,77.46
2022-09-24T06:01:47.016Z,77.44
2022-09-24T06:02:50.568Z,77.39
2022-09-24T06:03:52.284Z,77.34
2022-09-24T06:04:54.761Z,77.15
2022-09-24T06:05:59.553Z,77.41
2022-09-24T06:07:03.292Z,76.99
2022-09-24T06:08:05.537Z,76.99
2022-09-24T06:09:09.909Z,77.18
2022-09-24T06:10:13.296Z,77.14
2022-09-24T06:11:15.849Z,77.11
2022-09-24T06:12:17.516Z,77.02
2022-09-24T06:13:21.845Z,76.98
2022-09-24T06:14:23.433Z,76.85
2022-09-24T06:15:27.150Z,76.93
2022-09-24T06:16:29.127Z,77.02
2022-09-24T06:17:32.363Z,77.15
2022-09-24T06:18:35.039Z,76.92
2022-09-24T06:19:37.525Z,76.66
2022-09-24T06:20:40.077Z,76.72
2022-09-24T06:21:42.550Z,76.63
2022-09-24T06:22:44.059Z,77.04
2022-09-24T06:23:46.731Z,76.83
2022-09-24T06:24:48.345Z,76.95
2022-09-24T06:25:52.243Z,76.85
2022-09-24T06:26:54.090Z,76.76
2022-09-24T06:28:00.492Z,76.55
2022-09-24T06:29:05.277Z,76.74
2022-09-24T06:30:08.616Z,76.80
2022-09-24T06:31:12.439Z,76.65
2022-09-24T06:32:14.042Z,76.46
2022-09-24T06:33:16.603Z,76.63
2022-09-24T06:34:18.128Z,76.52
2022-09-24T06:35:20.819Z,76.42
2022-09-24T06:36:22.365Z,76.57
2022-09-24T06:37:24.920Z,76.18
2022-09-24T06:38:27.304Z,76.28
2022-09-24T06:39:29.817Z,76.18
2022-09-24T06:40:36.508Z,76.08
2022-09-24T06:41:41.166Z,76.05
2022-09-24T06:42:42.753Z,75.97
2022-09-24T06:43:45.644Z,75.74
2022-09-24T06:44:48.262Z,75.65
2022-09-24T06:45:50.944Z,75.58
2022-09-24T06:46:52.583Z,75.49
2022-09-24T06:47:56.043Z,75.70
2022-09-24T06:48:57.565Z,75.36
2022-09-24T06:50:00.128Z,75.40
2022-09-24T06:51:05.842Z,75.17
2022-09-24T06:52:07.384Z,75.22
2022-09-24T06:53:11.255Z,75.12
2022-09-24T06:54:13.967Z,75.05
2022-09-24T06:55:16.623Z,75.03
2022-09-24T06:56:19.132Z,75.11
2022-09-24T06:57:26.604Z,74.98
2022-09-24T06:58:31.732Z,74.98
2022-09-24T06:59:33.244Z,74.91
2022-09-24T07:00:37.357Z,74.79
2022-09-24T07:01:39.182Z,74.82
2022-09-24T07:02:42.451Z,74.81
2022-09-24T07:03:44.999Z,74.74
2022-09-24T07:04:46.577Z,74.84
2022-09-24T07:05:49.351Z,74.77
2022-09-24T07:07:09.494Z,74.66
2022-09-24T07:08:12.341Z,74.68
2022-09-24T07:09:13.857Z,74.65
2022-09-24T07:10:16.857Z,74.62
2022-09-24T07:11:21.072Z,74.64
2022-09-24T07:12:24.234Z,74.77
2022-09-24T07:13:26.804Z,74.60
2022-09-24T07:14:28.382Z,74.63
2022-09-24T07:15:30.889Z,74.47
2022-09-24T07:16:33.796Z,74.39
2022-09-24T07:17:35.876Z,74.40
2022-09-24T07:18:38.672Z,74.39
2022-09-24T07:19:41.942Z,74.38
2022-09-24T07:20:45.042Z,74.16
2022-09-24T07:21:47.485Z,74.15
2022-09-24T07:22:49.964Z,74.07
2022-09-24T07:23:58.814Z,74.02
2022-09-24T07:25:00.440Z,73.85
2022-09-24T07:26:09.029Z,73.79
2022-09-24T07:27:21.278Z,73.72
2022-09-24T07:28:35.117Z,73.63
2022-09-24T07:29:37.053Z,73.49
2022-09-24T07:30:42.060Z,73.57
2022-09-24T07:31:43.650Z,73.64
2022-09-24T07:32:46.332Z,73.47
2022-09-24T07:33:47.841Z,73.56
2022-09-24T07:34:50.600Z,73.45
2022-09-24T07:35:53.787Z,73.23
2022-09-24T07:37:04.708Z,73.08
2022-09-24T07:38:13.227Z,73.21
2022-09-24T07:39:15.192Z,73.20
2022-09-24T07:40:18.021Z,73.13
2022-09-24T07:41:20.124Z,73.15
2022-09-24T07:42:22.629Z,72.96
2022-09-24T07:43:25.275Z,72.92
2022-09-24T07:44:29.358Z,72.81
2022-09-24T07:45:33.343Z,72.84
2022-09-24T07:46:34.972Z,72.86
2022-09-24T07:47:37.669Z,72.74
2022-09-24T07:48:40.378Z,72.68
2022-09-24T07:49:45.316Z,72.64
2022-09-24T07:50:47.965Z,72.53
2022-09-24T07:51:49.680Z,72.45
2022-09-24T07:52:52.454Z,72.35
2022-09-24T07:54:00.069Z,72.25
2022-09-24T07:55:06.173Z,72.17
2022-09-24T07:56:09.435Z,72.21
2022-09-24T07:57:13.478Z,72.19
2022-09-24T07:58:16.073Z,72.15
2022-09-24T07:59:20.140Z,72.18
2022-09-24T08:00:25.519Z,72.11
2022-09-24T08:01:27.575Z,72.05
2022-09-24T08:02:30.319Z,72.01
2022-09-24T08:03:32.923Z,71.87
2022-09-24T08:04:34.902Z,71.87
2022-09-24T08:05:43.005Z,71.88
2022-09-24T08:06:47.555Z,71.90
2022-09-24T08:07:53.012Z,71.74
2022-09-24T08:08:56.342Z,71.70
2022-09-24T08:10:01.399Z,71.71
2022-09-24T08:11:10.548Z,71.66
2022-09-24T08:12:13.052Z,71.58
2022-09-24T08:13:14.711Z,71.63
2022-09-24T08:14:19.712Z,71.53
2022-09-24T08:15:26.317Z,71.48
2022-09-24T08:16:29.012Z,71.41
2022-09-24T08:17:31.490Z,71.32
2022-09-24T08:18:34.469Z,71.34
2022-09-24T08:19:36.052Z,71.33
2022-09-24T08:20:39.557Z,71.20
2022-09-24T08:21:42.575Z,71.08
2022-09-24T08:22:46.446Z,71.05
2022-09-24T08:23:48.329Z,71.07
2022-09-24T08:24:51.349Z,71.04
2022-09-24T08:25:54.247Z,71.08
2022-09-24T08:26:59.697Z,71.13
2022-09-24T08:28:02.070Z,71.10
2022-09-24T08:29:04.670Z,71.11
2022-09-24T08:30:07.509Z,70.75
2022-09-24T08:31:14.370Z,71.01
2022-09-24T08:32:16.158Z,70.89
2022-09-24T08:33:19.021Z,70.79
2022-09-24T08:34:20.770Z,71.04
2022-09-24T08:35:23.531Z,71.00
2022-09-24T08:36:25.070Z,70.83
2022-09-24T08:37:28.853Z,70.85
2022-09-24T08:38:30.696Z,70.84
2022-09-24T08:39:33.756Z,70.61
2022-09-24T08:40:39.297Z,70.39
2022-09-24T08:41:56.894Z,70.93
2022-09-24T08:43:07.803Z,70.64
2022-09-24T08:44:37.201Z,70.64
2022-09-24T08:46:02.502Z,70.51
2022-09-24T08:47:24.911Z,70.57
2022-09-24T08:48:31.588Z,70.57
2022-09-24T08:49:40.125Z,70.64
2022-09-24T08:50:48.563Z,70.65
2022-09-24T08:52:02.127Z,70.58
2022-09-24T08:53:14.022Z,70.49
2022-09-24T08:54:16.224Z,70.44
2022-09-24T08:55:23.880Z,70.21
2022-09-24T08:56:35.915Z,70.32
2022-09-24T08:57:45.616Z,70.37
2022-09-24T08:58:52.276Z,70.35
2022-09-24T08:59:55.377Z,70.13
2022-09-24T09:01:05.111Z,69.87
2022-09-24T09:02:24.534Z,69.89
2022-09-24T09:03:35.343Z,69.86
2022-09-24T09:04:49.712Z,69.73
2022-09-24T09:05:56.565Z,69.69
2022-09-24T09:07:12.273Z,69.52
2022-09-24T09:08:47.030Z,69.57
2022-09-24T09:09:50.884Z,69.51
2022-09-24T09:10:58.644Z,69.46
2022-09-24T09:12:04.915Z,69.29
2022-09-24T09:13:12.481Z,69.36
2022-09-24T09:14:21.483Z,69.01
2022-09-24T09:15:26.451Z,68.92
2022-09-24T09:16:34.641Z,68.80
2022-09-24T09:17:45.626Z,68.81
2022-09-24T09:18:50.846Z,68.70
2022-09-24T09:19:58.541Z,68.66
2022-09-24T09:21:13.588Z,68.36
2022-09-24T09:22:17.244Z,68.50
2022-09-24T09:23:21.361Z,68.24
2022-09-24T09:24:31.852Z,68.17
2022-09-24T09:25:37.159Z,68.16
2022-09-24T09:26:38.708Z,68.13
2022-09-24T09:27:41.281Z,67.94
2022-09-24T09:28:42.881Z,67.78
2022-09-24T09:29:49.101Z,67.62
2022-09-24T09:31:06.739Z,67.81
2022-09-24T09:32:17.721Z,67.58
2022-09-24T09:33:35.735Z,67.11
2022-09-24T09:34:52.662Z,67.14
2022-09-24T09:36:02.661Z,67.17
2022-09-24T09:37:14.360Z,66.79
2022-09-24T09:38:24.828Z,66.60
2022-09-24T09:39:38.857Z,66.69
2022-09-24T09:40:46.790Z,66.23
2022-09-24T09:41:52.847Z,66.14
2022-09-24T09:43:02.724Z,65.89
2022-09-24T09:44:14.837Z,65.59
2022-09-24T09:45:28.312Z,65.47
2022-09-24T09:46:34.381Z,65.51
2022-09-24T09:47:43.189Z,65.09
2022-09-24T09:48:52.133Z,65.16
2022-09-24T09:49:58.747Z,64.66
2022-09-24T09:51:05.033Z,64.33
2022-09-24T09:52:14.879Z,64.46
2022-09-24T09:53:21.902Z,64.29
2022-09-24T09:54:36.816Z,64.11
2022-09-24T09:55:39.483Z,64.18
2022-09-24T09:56:44.295Z,63.44
2022-09-24T09:57:48.410Z,63.80
2022-09-24T09:58:55.661Z,63.16
2022-09-24T09:59:57.659Z,63.01
2022-09-24T10:01:08.542Z,62.71
2022-09-24T10:02:16.241Z,62.60
2022-09-24T10:03:27.876Z,61.95
2022-09-24T10:04:40.432Z,62.18
2022-09-24T10:05:42.130Z,61.88
2022-09-24T10:06:44.659Z,61.59
2022-09-24T10:07:46.397Z,61.59
2022-09-24T10:08:48.965Z,61.33
2022-09-24T10:10:01.487Z,62.00
2022-09-24T10:11:04.600Z,61.48
2022-09-24T10:12:14.914Z,61.59
2022-09-24T10:13:17.489Z,61.41
2022-09-24T10:14:20.599Z,60.80
2022-09-24T10:15:25.591Z,61.02
2022-09-24T10:16:27.355Z,60.96
2022-09-24T10:17:35.377Z,60.09
2022-09-24T10:18:41.821Z,60.31
2022-09-24T10:19:47.694Z,59.76
2022-09-24T10:20:50.402Z,59.43
2022-09-24T10:21:54.846Z,59.42
2022-09-24T10:23:01.019Z,59.81
2022-09-24T10:24:16.547Z,59.47
2022-09-24T10:25:24.371Z,59.48
2022-09-24T10:26:34.815Z,59.45
2022-09-24T10:27:39.238Z,59.06
2022-09-24T10:29:10.314Z,59.64
2022-09-24T10:30:34.203Z,59.52
2022-09-24T10:31:39.965Z,59.35
2022-09-24T10:32:42.200Z,59.36
2022-09-24T10:33:48.017Z,59.15
2022-09-24T10:34:56.948Z,59.44
2022-09-24T10:36:06.830Z,59.48
2022-09-24T10:37:15.562Z,59.33
2022-09-24T10:38:19.279Z,59.27
2022-09-24T10:39:22.563Z,59.45
2022-09-24T10:40:30.900Z,59.22
2022-09-24T10:41:34.549Z,59.44
2022-09-24T10:42:37.114Z,59.44
2022-09-24T10:43:39.807Z,58.85
2022-09-24T10:44:41.863Z,59.39
2022-09-24T10:46:21.632Z,59.50
2022-09-24T10:47:33.078Z,58.95
2022-09-24T10:48:43.584Z,58.85
2022-09-24T10:49:58.494Z,59.37
2022-09-24T10:51:12.593Z,59.04
2022-09-24T10:52:39.243Z,59.08
2022-09-24T10:53:54.973Z,59.03
2022-09-24T10:55:07.675Z,59.32
2022-09-24T10:56:21.617Z,59.04
2022-09-24T10:57:31.226Z,59.16
2022-09-24T10:58:50.893Z,59.34
2022-09-24T11:00:03.388Z,59.08
2022-09-24T11:01:19.161Z,59.27
2022-09-24T11:02:34.747Z,58.99
2022-09-24T11:03:57.438Z,58.97
2022-09-24T11:05:01.299Z,59.12
2022-09-24T11:06:18.022Z,59.11
2022-09-24T11:07:57.149Z,59.48
2022-09-24T11:09:12.662Z,59.80
2022-09-24T11:10:25.989Z,59.91
2022-09-24T11:11:40.395Z,59.72
2022-09-24T11:12:53.767Z,59.87
2022-09-24T11:14:03.009Z,59.29
2022-09-24T11:15:22.405Z,59.85
2022-09-24T11:16:57.307Z,59.57
2022-09-24T11:18:14.451Z,59.48
2022-09-24T11:19:32.639Z,59.68
2022-09-24T11:20:37.359Z,59.53
2022-09-24T11:22:00.472Z,59.28
2022-09-24T11:23:16.869Z,59.06
2022-09-24T11:24:52.000Z,59.49
2022-09-24T11:26:03.787Z,59.53
2022-09-24T11:27:28.961Z,59.14
2022-09-24T11:29:04.831Z,59.26
2022-09-24T11:30:13.169Z,59.56
2022-09-24T11:31:21.798Z,59.28
2022-09-24T11:32:32.564Z,59.37
2022-09-24T11:34:03.129Z,59.66
2022-09-24T11:35:30.980Z,59.76
2022-09-24T11:36:49.448Z,59.44
2022-09-24T11:38:01.253Z,59.80
2022-09-24T11:39:19.832Z,59.88
2022-09-24T11:40:34.909Z,60.02
2022-09-24T11:41:50.175Z,59.96
2022-09-24T11:43:01.881Z,59.93
2022-09-24T11:44:23.307Z,59.74
2022-09-24T11:45:51.652Z,59.92
2022-09-24T11:47:06.226Z,60.03
2022-09-24T11:48:24.743Z,59.89
2022-09-24T11:49:43.435Z,59.92
2022-09-24T11:50:57.236Z,59.78
2022-09-24T11:52:08.125Z,60.00
2022-09-24T11:53:15.555Z,59.64
2022-09-24T11:54:24.607Z,59.85
2022-09-24T11:55:35.540Z,60.23
2022-09-24T11:56:42.673Z,59.84
2022-09-24T11:57:51.375Z,60.25
2022-09-24T11:58:58.900Z,60.21
2022-09-24T12:00:07.185Z,59.65
2022-09-24T12:01:15.447Z,60.06
2022-09-24T12:02:24.966Z,59.65
2022-09-24T12:03:45.244Z,59.80
2022-09-24T12:04:54.793Z,60.05
2022-09-24T12:06:01.457Z,59.90
2022-09-24T12:07:13.139Z,59.71
2022-09-24T12:08:18.725Z,59.47
2022-09-24T12:09:29.546Z,59.65
2022-09-24T12:10:36.863Z,59.57
2022-09-24T12:11:43.360Z,59.71
2022-09-24T12:12:48.722Z,59.71
2022-09-24T12:13:57.095Z,59.74
2022-09-24T12:15:02.675Z,59.23
2022-09-24T12:16:09.428Z,59.54
2022-09-24T12:17:18.760Z,59.39
2022-09-24T12:18:26.116Z,59.26
2022-09-24T12:19:33.162Z,59.07
2022-09-24T12:20:45.626Z,59.12
2022-09-24T12:21:50.078Z,59.01
2022-09-24T12:23:00.127Z,59.55
2022-09-24T12:24:10.290Z,59.06
2022-09-24T12:25:12.797Z,59.17
2022-09-24T12:26:18.537Z,58.97
2022-09-24T12:27:28.098Z,59.42
2022-09-24T12:28:54.777Z,59.41
2022-09-24T12:30:21.581Z,59.30
2022-09-24T12:31:48.145Z,59.51
2022-09-24T12:32:59.417Z,59.57
2022-09-24T12:34:08.072Z,59.68
2022-09-24T12:35:19.925Z,59.47
2022-09-24T12:36:26.031Z,59.47
2022-09-24T12:37:34.095Z,59.36
2022-09-24T12:38:41.117Z,59.35
2022-09-24T12:39:50.214Z,59.44
2022-09-24T12:41:19.716Z,59.23
2022-09-24T12:42:24.041Z,59.30
2022-09-24T12:43:33.496Z,59.55
2022-09-24T12:44:43.668Z,59.42
2022-09-24T12:45:47.649Z,59.53
2022-09-24T12:46:54.877Z,59.55
2022-09-24T12:47:59.884Z,59.48
2022-09-24T12:49:03.013Z,59.80
2022-09-24T12:50:08.329Z,59.35
2022-09-24T12:51:12.626Z,59.75
2022-09-24T12:52:19.241Z,59.82
2022-09-24T12:53:25.233Z,59.81
2022-09-24T12:54:32.001Z,59.69
2022-09-24T12:55:35.616Z,60.14
2022-09-24T12:56:38.186Z,59.67
2022-09-24T12:57:49.469Z,60.02
2022-09-24T12:58:52.007Z,60.17
2022-09-24T12:59:55.529Z,60.11
2022-09-24T13:01:12.606Z,60.32
2022-09-24T13:02:17.617Z,60.28
2022-09-24T13:03:33.344Z,60.31
2022-09-24T13:04:36.184Z,60.59
2022-09-24T13:05:47.864Z,60.89
2022-09-24T13:06:50.587Z,61.18
2022-09-24T13:07:58.611Z,61.16
2022-09-24T13:09:01.904Z,61.26
2022-09-24T13:10:23.548Z,61.37
2022-09-24T13:11:30.323Z,61.21
2022-09-24T13:12:34.197Z,61.29
2022-09-24T13:13:40.779Z,61.22
2022-09-24T13:14:50.004Z,61.53
2022-09-24T13:16:01.738Z,61.30
2022-09-24T13:17:07.750Z,61.27
2022-09-24T13:18:24.941Z,61.65
2022-09-24T13:19:38.892Z,62.06
2022-09-24T13:20:49.282Z,61.97
2022-09-24T13:21:57.028Z,61.59
2022-09-24T13:23:12.046Z,61.87
2022-09-24T13:24:27.105Z,62.00
2022-09-24T13:25:32.922Z,62.49
2022-09-24T13:26:34.680Z,62.57
2022-09-24T13:27:39.591Z,62.80
2022-09-24T13:28:55.125Z,62.77
2022-09-24T13:30:15.307Z,62.74
2022-09-24T13:31:22.609Z,62.61
2022-09-24T13:32:25.548Z,63.15
2022-09-24T13:33:31.860Z,62.94
2022-09-24T13:34:34.484Z,63.00
2022-09-24T13:35:44.835Z,63.20
2022-09-24T13:36:52.724Z,63.04
2022-09-24T13:38:03.481Z,62.86
2022-09-24T13:39:15.699Z,63.16
2022-09-24T13:40:20.375Z,62.92
2022-09-24T13:41:42.953Z,62.86
2022-09-24T13:42:50.848Z,62.89
2022-09-24T13:43:57.427Z,62.97
2022-09-24T13:45:04.182Z,63.04
2022-09-24T13:46:16.672Z,63.20
2022-09-24T13:47:29.082Z,63.11
2022-09-24T13:48:36.002Z,62.84
2022-09-24T13:49:41.636Z,63.30
2022-09-24T13:50:49.270Z,63.25
2022-09-24T13:51:58.722Z,62.75
2022-09-24T13:53:06.330Z,63.09
2022-09-24T13:54:17.443Z,62.79
2022-09-24T13:55:25.779Z,62.61
2022-09-24T13:56:28.987Z,62.74
2022-09-24T13:57:31.685Z,63.03
2022-09-24T13:58:35.354Z,62.66
2022-09-24T13:59:38.225Z,63.01
2022-09-24T14:00:42.675Z,62.97
2022-09-24T14:01:47.058Z,62.65
2022-09-24T14:03:02.909Z,62.46
2022-09-24T14:04:08.649Z,62.46
2022-09-24T14:05:17.078Z,62.56
2022-09-24T14:06:22.387Z,62.88
2022-09-24T14:07:26.667Z,62.53
2022-09-24T14:08:30.847Z,62.73
2022-09-24T14:09:34.553Z,62.84
2022-09-24T14:10:37.581Z,62.71
2022-09-24T14:11:48.792Z,63.06
2022-09-24T14:13:00.838Z,62.85
2022-09-24T14:14:17.583Z,62.80
2022-09-24T14:15:19.196Z,63.08
2022-09-24T14:16:23.916Z,63.18